Terminal Aerodrome Forecast
Issued by NWS King Salmon, AK

Current Version | Previous Version | Text Only | Print | Product List | Glossary On
Versions: 1 2 3 4 5 6 7 8 9 10 11 12 13 14 15 16 17 18 19 20 21 22 23 24 25 26 27 28 29 30 31 32 33 34 35 36 37 38 39 40 41
000
FTAK31 PANC 031730
TAFAKN
TAF
PAKN 031730Z 0318/0418 VRB05KT P6SM -SHRA SCT018 OVC030
      TEMPO 0318/0322 4SM -SHRA BR OVC018
     FM040300 VRB05KT P6SM -SHRA SCT018 BKN035=

USA.gov is the U.S. government's official web portal to all federal, state and local government web resources and services.